Time;durP1;ratioP1;P1;durP2;ratioP2;P2;SDS_P1;SDS_P2;PMS_P1;PMS_P2;Temp;Humidity;BMP_temperature;BMP_pressure;BME280_temperature;BME280_humidity;BME280_pressure;Samples;Min_cycle;Max_cycle;Signal;HPM_P1;HPM_P2
2023/12/28 00:01:08;;;;;;;625.97;258.25;;;;;;;3.15;100.00;98030.03;4975057;28;20117;-58
2023/12/28 00:03:33;;;;;;;515.80;244.63;;;;;;;3.19;100.00;98029.28;4976293;28;20169;-60
2023/12/28 00:05:59;;;;;;;545.70;242.82;;;;;;;3.18;100.00;98032.69;4974586;28;20031;-60
2023/12/28 00:08:24;;;;;;;454.98;246.40;;;;;;;3.22;100.00;98026.81;4976092;28;20105;-58
2023/12/28 00:10:50;;;;;;;496.27;239.02;;;;;;;3.05;100.00;98023.81;4976568;28;20476;-58
2023/12/28 00:13:15;;;;;;;486.42;236.15;;;;;;;2.95;100.00;98026.94;4978027;28;20085;-57
2023/12/28 00:15:40;;;;;;;489.80;243.80;;;;;;;3.00;100.00;98030.50;4974837;28;20034;-58
2023/12/28 00:18:06;;;;;;;594.72;241.05;;;;;;;2.88;100.00;98038.72;4976009;28;20068;-57
2023/12/28 00:20:31;;;;;;;445.10;241.10;;;;;;;2.82;100.00;98039.44;4977298;28;20112;-59
2023/12/28 00:22:58;;;;;;;391.70;229.23;;;;;;;2.68;100.00;98033.03;4975492;28;20415;-57
2023/12/28 00:25:23;;;;;;;431.40;229.35;;;;;;;2.70;100.00;98027.13;4973868;28;20510;-59
2023/12/28 00:27:49;;;;;;;379.88;226.48;;;;;;;2.65;100.00;98044.09;4973337;28;20026;-56
2023/12/28 00:30:14;;;;;;;534.95;252.93;;;;;;;2.57;100.00;98038.72;4973916;28;20101;-57
2023/12/28 00:32:43;;;;;;;441.55;240.40;;;;;;;2.37;100.00;98033.00;4979825;28;20347;-56
2023/12/28 00:35:09;;;;;;;550.55;249.20;;;;;;;2.20;100.00;98041.03;4973537;28;20498;-58
2023/12/28 00:37:34;;;;;;;468.40;238.60;;;;;;;2.17;100.00;98035.84;4977210;28;20386;-58
2023/12/28 00:39:59;;;;;;;522.35;239.18;;;;;;;2.27;100.00;98018.16;4973240;28;20135;-58
2023/12/28 00:42:25;;;;;;;438.08;236.52;;;;;;;2.24;100.00;98016.38;4974294;28;20452;-57
2023/12/28 00:44:50;;;;;;;403.60;221.38;;;;;;;2.30;100.00;98006.28;4978885;28;20109;-58
2023/12/28 00:47:15;;;;;;;519.25;235.40;;;;;;;2.33;100.00;98015.75;4976999;28;20053;-58
2023/12/28 00:49:41;;;;;;;384.33;228.73;;;;;;;2.41;100.00;98014.28;4978048;28;20014;-57
2023/12/28 00:52:06;;;;;;;470.50;214.13;;;;;;;2.35;100.00;98019.25;4974892;28;20043;-57
2023/12/28 00:54:31;;;;;;;423.17;220.43;;;;;;;2.21;100.00;98022.28;4973764;28;20106;-58
2023/12/28 00:56:57;;;;;;;381.77;222.75;;;;;;;1.99;100.00;98022.41;4977154;28;20043;-56
2023/12/28 00:59:22;;;;;;;437.95;223.80;;;;;;;1.99;100.00;98018.16;4974998;28;20092;-57
2023/12/28 01:01:47;;;;;;;448.90;229.57;;;;;;;1.98;100.00;98025.81;4975860;28;20047;-57
2023/12/28 01:04:13;;;;;;;499.20;236.73;;;;;;;1.97;100.00;98032.66;4973023;28;20508;-58
2023/12/28 01:06:38;;;;;;;435.60;220.30;;;;;;;1.95;100.00;98037.72;4974759;28;20687;-58
2023/12/28 01:09:03;;;;;;;603.85;229.45;;;;;;;2.02;100.00;98046.50;4976823;28;20076;-58
2023/12/28 01:11:28;;;;;;;442.05;222.95;;;;;;;1.92;100.00;98050.44;4973773;28;20042;-59
2023/12/28 01:13:54;;;;;;;440.38;228.57;;;;;;;1.91;100.00;98032.44;4975547;28;20062;-59
2023/12/28 01:16:19;;;;;;;470.25;235.52;;;;;;;1.84;100.00;98031.38;4972193;28;20046;-57
2023/12/28 01:18:45;;;;;;;464.73;235.13;;;;;;;1.73;100.00;98037.84;4975145;28;20033;-58
2023/12/28 01:21:10;;;;;;;491.13;232.30;;;;;;;1.72;100.00;98048.94;4972461;28;20499;-58
2023/12/28 01:23:36;;;;;;;496.55;228.65;;;;;;;1.66;100.00;98045.34;4971908;28;20027;-58
2023/12/28 01:26:01;;;;;;;409.58;215.13;;;;;;;1.59;100.00;98040.81;4974294;28;20035;-57
2023/12/28 01:28:28;;;;;;;429.45;219.95;;;;;;;1.54;100.00;98042.38;4978018;28;20026;-58
2023/12/28 01:30:53;;;;;;;467.40;239.88;;;;;;;1.45;100.00;98060.88;4972137;28;20038;-59
2023/12/28 01:33:18;;;;;;;611.75;248.30;;;;;;;1.29;100.00;98041.53;4963690;28;20027;-58
2023/12/28 01:35:43;;;;;;;452.25;255.68;;;;;;;1.30;100.00;98063.81;4975025;28;20066;-58
2023/12/28 01:38:09;;;;;;;602.63;236.98;;;;;;;1.24;100.00;98061.88;4972809;28;20133;-57
2023/12/28 01:40:34;;;;;;;447.40;255.48;;;;;;;1.20;100.00;98052.34;4972583;28;20937;-57
2023/12/28 01:43:00;;;;;;;440.65;239.07;;;;;;;1.15;100.00;98051.31;4975396;28;20129;-58
2023/12/28 01:45:25;;;;;;;471.05;249.95;;;;;;;1.16;100.00;98035.13;4974458;28;20565;-58
2023/12/28 01:47:53;;;;;;;435.35;242.38;;;;;;;1.32;100.00;98035.63;4976543;28;20045;-59
2023/12/28 01:50:19;;;;;;;546.70;243.32;;;;;;;1.37;100.00;98036.69;4974310;28;20456;-58
2023/12/28 01:52:46;;;;;;;488.88;242.25;;;;;;;1.42;100.00;98048.81;4975538;28;20022;-57
2023/12/28 01:55:12;;;;;;;555.80;258.33;;;;;;;1.21;100.00;98053.19;4978772;28;20029;-59
2023/12/28 01:57:37;;;;;;;455.23;245.82;;;;;;;1.22;100.00;98062.66;4972912;28;20514;-58
2023/12/28 02:00:04;;;;;;;463.25;255.57;;;;;;;1.21;100.00;98068.56;4971741;28;20585;-58
2023/12/28 02:02:31;;;;;;;425.50;266.58;;;;;;;1.14;100.00;98068.38;4975720;28;20104;-60
2023/12/28 02:04:56;;;;;;;426.25;250.13;;;;;;;1.13;100.00;98068.31;4975557;28;20544;-58
2023/12/28 02:07:23;;;;;;;459.83;241.60;;;;;;;1.16;100.00;98068.44;4970160;28;22002;-58
2023/12/28 02:09:48;;;;;;;446.92;251.05;;;;;;;1.12;100.00;98064.88;4971067;28;20022;-58
2023/12/28 02:12:14;;;;;;;518.80;251.70;;;;;;;1.24;100.00;98059.31;4972273;28;20127;-58
2023/12/28 02:14:39;;;;;;;448.52;237.55;;;;;;;1.33;100.00;98061.31;4973945;28;20050;-58
2023/12/28 02:17:13;;;;;;;470.05;232.18;;;;;;;1.32;100.00;98053.56;4974584;28;20117;-57
2023/12/28 02:19:51;;;;;;;438.90;241.48;;;;;;;1.32;100.00;98059.59;4974229;28;20026;-57
2023/12/28 02:22:16;;;;;;;581.13;247.68;;;;;;;1.17;100.00;98063.38;4972843;28;20157;-59
2023/12/28 02:25:03;;;;;;;453.38;248.55;;;;;;;0.98;100.00;98063.50;4977109;28;20045;-57
2023/12/28 02:27:29;;;;;;;428.95;237.88;;;;;;;1.04;100.00;98067.16;4968312;28;20467;-58
2023/12/28 02:29:55;;;;;;;427.60;245.13;;;;;;;1.08;100.00;98062.16;4980145;28;20027;-58
2023/12/28 02:32:29;;;;;;;513.90;251.45;;;;;;;1.13;100.00;98070.88;4975461;28;20046;-58
2023/12/28 02:35:16;;;;;;;423.23;249.23;;;;;;;1.12;100.00;98064.00;4976342;28;20149;-58
2023/12/28 02:37:45;;;;;;;452.55;259.85;;;;;;;1.03;100.00;98070.56;4977687;28;20231;-57
2023/12/28 02:40:11;;;;;;;487.58;242.10;;;;;;;1.00;100.00;98062.75;4973949;28;20019;-58
2023/12/28 02:42:37;;;;;;;445.45;232.40;;;;;;;0.95;100.00;98048.03;4977135;28;20042;-57
2023/12/28 02:45:03;;;;;;;424.85;241.13;;;;;;;0.99;100.00;98050.78;4978842;28;20042;-57
2023/12/28 02:47:28;;;;;;;438.92;246.35;;;;;;;1.08;100.00;98059.59;4973059;28;20122;-57
2023/12/28 02:49:53;;;;;;;466.88;263.95;;;;;;;1.00;100.00;98056.78;4980544;28;20542;-57
2023/12/28 02:52:19;;;;;;;516.63;246.55;;;;;;;1.13;100.00;98058.94;4978503;28;20133;-58
2023/12/28 02:54:44;;;;;;;395.90;226.82;;;;;;;1.04;100.00;98056.06;4975492;28;20030;-59
2023/12/28 02:57:09;;;;;;;540.92;228.38;;;;;;;1.07;100.00;98065.53;4981800;28;20038;-58
2023/12/28 02:59:35;;;;;;;423.67;221.00;;;;;;;1.03;100.00;98059.41;4978200;28;20022;-57
2023/12/28 03:02:00;;;;;;;380.20;218.48;;;;;;;0.93;100.00;98060.81;4975690;28;20057;-58
2023/12/28 03:04:25;;;;;;;423.38;228.02;;;;;;;0.94;100.00;98048.84;4978966;28;20609;-57
2023/12/28 03:06:50;;;;;;;419.00;233.52;;;;;;;0.87;100.00;98055.44;4979817;28;20041;-59
2023/12/28 03:09:16;;;;;;;508.33;235.40;;;;;;;0.94;100.00;98057.41;4976812;28;20405;-59
2023/12/28 03:11:41;;;;;;;422.52;229.10;;;;;;;0.85;100.00;98067.34;4976890;28;20530;-59
2023/12/28 03:14:06;;;;;;;429.85;234.32;;;;;;;0.88;100.00;98067.41;4975288;28;20027;-57
2023/12/28 03:16:32;;;;;;;423.33;231.68;;;;;;;0.85;100.00;98075.88;4978165;28;20141;-58
2023/12/28 03:18:57;;;;;;;427.92;221.82;;;;;;;0.95;100.00;98059.16;4977437;28;20058;-59
2023/12/28 03:21:22;;;;;;;504.88;221.10;;;;;;;1.01;100.00;98066.19;4979302;28;20031;-57
2023/12/28 03:23:48;;;;;;;394.05;209.18;;;;;;;1.02;100.00;98060.25;4978790;28;20026;-58
2023/12/28 03:26:13;;;;;;;534.60;208.32;;;;;;;0.98;100.00;98076.31;4976711;28;20086;-58
2023/12/28 03:28:40;;;;;;;388.45;195.10;;;;;;;0.87;100.00;98074.25;4978921;28;20109;-57
2023/12/28 03:31:05;;;;;;;401.13;204.88;;;;;;;0.94;100.00;98079.59;4976065;28;20336;-58
2023/12/28 03:33:30;;;;;;;431.80;206.50;;;;;;;0.83;100.00;98072.41;4973184;28;20025;-59
2023/12/28 03:35:56;;;;;;;399.65;218.90;;;;;;;0.83;100.00;98077.53;4979504;28;20038;-58
2023/12/28 03:38:22;;;;;;;527.35;212.88;;;;;;;0.77;100.00;98080.72;4975919;28;20050;-58
2023/12/28 03:40:49;;;;;;;406.15;213.48;;;;;;;0.75;100.00;98063.56;4978947;28;20455;-59
2023/12/28 03:43:14;;;;;;;553.22;216.95;;;;;;;0.90;100.00;98083.72;4973906;28;20756;-58
2023/12/28 03:45:40;;;;;;;396.17;199.18;;;;;;;0.84;100.00;98071.56;4979273;28;20038;-58
2023/12/28 03:48:05;;;;;;;407.67;204.98;;;;;;;0.94;100.00;98069.34;4977563;28;20503;-57
2023/12/28 03:50:31;;;;;;;424.83;217.95;;;;;;;0.96;100.00;98070.28;4976083;28;20490;-58
2023/12/28 03:52:58;;;;;;;379.23;214.80;;;;;;;0.99;100.00;98065.25;4975569;28;20034;-56
2023/12/28 03:55:23;;;;;;;551.75;220.38;;;;;;;0.97;100.00;98070.31;4974728;28;20026;-57
2023/12/28 03:57:51;;;;;;;401.10;210.25;;;;;;;1.02;100.00;98060.25;4978618;28;20072;-58
2023/12/28 04:00:16;;;;;;;487.60;230.40;;;;;;;1.08;100.00;98067.28;4973908;28;20355;-58
2023/12/28 04:02:41;;;;;;;445.55;242.80;;;;;;;1.02;100.00;98062.81;4975240;28;20073;-56
2023/12/28 04:05:07;;;;;;;392.55;215.13;;;;;;;1.02;100.00;98063.69;4977097;28;20597;-58
2023/12/28 04:07:32;;;;;;;384.42;202.20;;;;;;;1.05;100.00;98062.94;4977436;28;20033;-57
2023/12/28 04:09:58;;;;;;;431.65;214.20;;;;;;;1.03;100.00;98060.31;4978504;28;20035;-58
2023/12/28 04:12:24;;;;;;;505.55;221.48;;;;;;;1.02;100.00;98058.56;4974961;28;20043;-58
2023/12/28 04:14:49;;;;;;;398.63;219.20;;;;;;;1.07;100.00;98051.03;4978760;28;20438;-57
2023/12/28 04:17:14;;;;;;;530.95;216.93;;;;;;;1.13;100.00;98050.38;4976105;28;20413;-59
2023/12/28 04:19:39;;;;;;;400.75;210.80;;;;;;;1.22;100.00;98067.78;4978999;28;20045;-57
2023/12/28 04:22:05;;;;;;;399.85;205.23;;;;;;;1.15;100.00;98057.31;4974284;28;20570;-58
2023/12/28 04:24:30;;;;;;;421.27;212.60;;;;;;;1.24;100.00;98063.56;4974872;28;20030;-59
2023/12/28 04:26:56;;;;;;;392.52;212.68;;;;;;;1.14;100.00;98054.69;4980505;28;20059;-58
2023/12/28 04:29:21;;;;;;;458.58;217.23;;;;;;;1.13;100.00;98055.50;4975496;28;20442;-59
2023/12/28 04:31:46;;;;;;;432.90;226.63;;;;;;;1.29;100.00;98062.03;4978061;28;20045;-56
2023/12/28 04:34:12;;;;;;;427.27;230.85;;;;;;;1.61;100.00;98064.84;4975818;28;20041;-58
2023/12/28 04:36:42;;;;;;;380.63;219.15;;;;;;;1.80;100.00;98065.44;4981635;28;20062;-58
2023/12/28 04:39:09;;;;;;;392.20;212.20;;;;;;;1.66;100.00;98070.09;4970383;28;20506;-59
2023/12/28 04:41:34;;;;;;;405.00;220.13;;;;;;;1.84;100.00;98067.28;4975456;28;20134;-59
2023/12/28 04:43:59;;;;;;;382.45;218.77;;;;;;;2.00;100.00;98057.53;4976940;28;20318;-58
2023/12/28 04:46:25;;;;;;;439.60;209.57;;;;;;;2.15;100.00;98057.16;4978962;28;20121;-59
2023/12/28 04:48:50;;;;;;;370.38;201.23;;;;;;;2.31;100.00;98040.53;4980250;28;20608;-57
2023/12/28 04:51:15;;;;;;;387.48;205.82;;;;;;;2.51;100.00;98051.38;4977236;28;20046;-59
2023/12/28 04:53:41;;;;;;;460.55;218.90;;;;;;;2.93;100.00;98047.44;4977357;28;20039;-58
2023/12/28 04:56:06;;;;;;;410.60;219.02;;;;;;;2.91;100.00;98051.69;4978726;28;20049;-59
2023/12/28 04:58:31;;;;;;;383.48;217.20;;;;;;;3.04;100.00;98046.88;4979697;28;20038;-57
2023/12/28 05:00:57;;;;;;;451.10;223.07;;;;;;;2.93;100.00;98044.88;4977229;28;20382;-58
2023/12/28 05:03:22;;;;;;;447.88;204.00;;;;;;;2.87;100.00;98052.41;4979451;28;20661;-59
2023/12/28 05:05:47;;;;;;;400.63;205.50;;;;;;;2.98;100.00;98058.72;4976588;28;20046;-56
2023/12/28 05:08:13;;;;;;;472.63;215.73;;;;;;;3.15;100.00;98065.16;4975964;28;20043;-58
2023/12/28 05:10:38;;;;;;;403.17;207.70;;;;;;;3.15;100.00;98070.31;4977964;28;20065;-58
2023/12/28 05:13:04;;;;;;;418.00;209.65;;;;;;;3.22;100.00;98062.81;4978204;28;20110;-57
2023/12/28 05:15:29;;;;;;;451.00;207.80;;;;;;;3.40;100.00;98064.13;4979456;28;20046;-57
2023/12/28 05:17:54;;;;;;;392.02;210.30;;;;;;;3.66;100.00;98066.50;4968651;28;20018;-57
2023/12/28 05:20:20;;;;;;;436.02;205.57;;;;;;;3.75;100.00;98071.03;4977491;28;20089;-59
2023/12/28 05:22:45;;;;;;;438.55;213.65;;;;;;;3.89;100.00;98066.19;4977459;28;20623;-57
2023/12/28 05:25:10;;;;;;;419.55;206.32;;;;;;;4.08;100.00;98072.66;4982135;28;20519;-58
2023/12/28 05:27:36;;;;;;;422.73;219.90;;;;;;;4.12;100.00;98068.47;4983340;28;20026;-59
2023/12/28 05:30:01;;;;;;;446.25;217.13;;;;;;;4.21;100.00;98068.69;4982573;28;20077;-58
2023/12/28 05:32:26;;;;;;;462.35;219.25;;;;;;;4.15;100.00;98077.13;4975196;28;20414;-58
2023/12/28 05:34:52;;;;;;;419.27;220.80;;;;;;;4.18;100.00;98078.91;4975095;28;20382;-58
2023/12/28 05:37:17;;;;;;;445.30;222.02;;;;;;;4.04;100.00;98082.03;4977306;28;20046;-59
2023/12/28 05:39:42;;;;;;;452.02;227.80;;;;;;;4.38;100.00;98081.09;4978665;28;20053;-58
2023/12/28 05:42:08;;;;;;;434.48;223.90;;;;;;;4.49;100.00;98086.47;4978823;28;20034;-58
2023/12/28 05:44:33;;;;;;;427.85;222.85;;;;;;;4.41;100.00;98082.00;4977152;28;20038;-59
2023/12/28 05:46:58;;;;;;;438.00;226.55;;;;;;;4.70;100.00;98093.81;4977640;28;20585;-59
2023/12/28 05:49:25;;;;;;;518.40;229.80;;;;;;;4.70;100.00;98088.66;4974086;28;20023;-59
2023/12/28 05:51:50;;;;;;;374.55;215.57;;;;;;;4.78;100.00;98089.69;4973850;28;20065;-59
2023/12/28 05:54:15;;;;;;;455.42;222.93;;;;;;;4.68;100.00;98086.03;4978328;28;20584;-59
2023/12/28 05:56:41;;;;;;;429.17;212.98;;;;;;;4.79;100.00;98100.88;4980935;28;20133;-58
2023/12/28 05:59:06;;;;;;;419.45;207.20;;;;;;;4.90;100.00;98103.69;4974325;28;20117;-58
2023/12/28 06:01:32;;;;;;;491.70;214.13;;;;;;;4.68;100.00;98101.50;4976745;28;20045;-59
2023/12/28 06:03:57;;;;;;;419.08;199.52;;;;;;;4.81;100.00;98102.66;4981052;28;20026;-58
2023/12/28 06:06:22;;;;;;;441.83;196.02;;;;;;;4.85;100.00;98113.00;4978390;28;20047;-58
2023/12/28 06:08:48;;;;;;;426.98;206.05;;;;;;;5.15;100.00;98110.22;4983801;28;20369;-57
2023/12/28 06:11:13;;;;;;;432.08;201.32;;;;;;;5.12;100.00;98119.59;4984185;28;20407;-58
2023/12/28 06:13:38;;;;;;;427.52;202.93;;;;;;;5.13;100.00;98124.78;4979536;28;20473;-58
2023/12/28 06:16:04;;;;;;;461.90;216.05;;;;;;;5.34;100.00;98111.44;4982560;28;20038;-58
2023/12/28 06:18:29;;;;;;;434.10;219.32;;;;;;;5.16;100.00;98114.50;4980567;28;20034;-58
2023/12/28 06:20:55;;;;;;;429.65;209.27;;;;;;;5.22;100.00;98124.09;4977062;28;20035;-57
2023/12/28 06:23:20;;;;;;;526.33;228.43;;;;;;;5.10;100.00;98126.41;4977347;28;20119;-56
2023/12/28 06:25:45;;;;;;;435.63;216.48;;;;;;;4.68;100.00;98128.97;4981044;28;20049;-56
2023/12/28 06:28:11;;;;;;;453.23;208.73;;;;;;;4.71;100.00;98126.47;4979109;28;20081;-56
2023/12/28 06:30:36;;;;;;;428.63;206.57;;;;;;;4.95;100.00;98122.69;4980087;28;20044;-58
2023/12/28 06:33:02;;;;;;;455.40;211.77;;;;;;;5.12;100.00;98119.59;4982287;28;20031;-58
2023/12/28 06:35:27;;;;;;;482.67;220.00;;;;;;;5.15;100.00;98123.09;4980598;28;20130;-57
2023/12/28 06:37:52;;;;;;;429.63;224.50;;;;;;;5.26;100.00;98119.84;4978707;28;20325;-59
2023/12/28 06:40:18;;;;;;;484.80;232.25;;;;;;;4.70;100.00;98127.31;4980221;28;20490;-58
2023/12/28 06:42:43;;;;;;;459.80;257.83;;;;;;;4.79;100.00;98119.75;4985667;28;20049;-58
2023/12/28 06:45:10;;;;;;;446.13;218.88;;;;;;;4.71;100.00;98123.03;4979272;28;20316;-57
2023/12/28 06:47:35;;;;;;;450.15;223.80;;;;;;;4.67;100.00;98124.66;4979836;28;20045;-57
2023/12/28 06:50:00;;;;;;;415.27;205.13;;;;;;;4.60;100.00;98133.09;4979281;28;20023;-58
2023/12/28 06:52:26;;;;;;;521.47;234.98;;;;;;;4.48;100.00;98115.63;4981313;28;20057;-57
2023/12/28 06:54:52;;;;;;;412.85;197.52;;;;;;;4.61;100.00;98132.25;4982209;28;20032;-58
2023/12/28 06:57:17;;;;;;;405.65;195.20;;;;;;;4.96;100.00;98132.16;4977540;28;20070;-57
2023/12/28 06:59:42;;;;;;;433.20;192.68;;;;;;;5.08;100.00;98135.00;4976655;28;20136;-57
2023/12/28 07:02:08;;;;;;;398.98;196.05;;;;;;;5.34;100.00;98137.25;4984316;28;20092;-57
2023/12/28 07:04:33;;;;;;;468.60;207.63;;;;;;;5.38;100.00;98135.56;4978375;28;20046;-59
2023/12/28 07:06:58;;;;;;;444.10;205.15;;;;;;;5.48;100.00;98149.53;4977953;28;20512;-58
2023/12/28 07:09:24;;;;;;;497.27;207.30;;;;;;;5.53;100.00;98150.50;4979551;28;20034;-59
2023/12/28 07:11:49;;;;;;;358.65;171.35;;;;;;;5.53;100.00;98142.75;4978300;28;20042;-57
2023/12/28 07:14:14;;;;;;;419.88;173.30;;;;;;;5.53;100.00;98142.75;4982992;28;20030;-58
2023/12/28 07:16:40;;;;;;;396.90;176.65;;;;;;;5.73;100.00;98142.28;4978476;28;20570;-57
2023/12/28 07:19:05;;;;;;;413.75;183.95;;;;;;;5.89;100.00;98163.19;4980389;28;20463;-58
2023/12/28 07:21:30;;;;;;;482.17;199.80;;;;;;;5.94;100.00;98154.69;4979305;28;20074;-57
2023/12/28 07:23:56;;;;;;;382.98;191.30;;;;;;;6.12;100.00;98167.09;4980224;28;20026;-57
2023/12/28 07:26:21;;;;;;;450.10;176.82;;;;;;;6.22;100.00;98164.66;4979387;28;20045;-59
2023/12/28 07:28:48;;;;;;;416.38;189.95;;;;;;;6.18;100.00;98168.91;4976615;28;20280;-57
2023/12/28 07:31:34;;;;;;;398.27;180.25;;;;;;;6.38;100.00;98164.06;4981350;28;20050;-57
2023/12/28 07:33:59;;;;;;;418.58;179.93;;;;;;;6.34;100.00;98159.69;4980002;28;20039;-57
2023/12/28 07:36:24;;;;;;;445.75;190.07;;;;;;;6.49;100.00;98165.94;4974718;28;20045;-58
2023/12/28 07:38:50;;;;;;;420.90;190.90;;;;;;;6.59;100.00;98162.69;4977039;28;20416;-57
2023/12/28 07:41:15;;;;;;;451.65;182.70;;;;;;;6.67;100.00;98167.06;4978727;28;20466;-58
2023/12/28 07:43:40;;;;;;;414.73;184.50;;;;;;;6.75;100.00;98175.81;4977753;28;20026;-57
2023/12/28 07:46:06;;;;;;;417.08;186.77;;;;;;;6.76;100.00;98170.69;4980040;28;20045;-57
2023/12/28 07:48:31;;;;;;;495.60;197.18;;;;;;;6.82;100.00;98169.03;4974167;28;20065;-57
2023/12/28 07:50:57;;;;;;;414.33;185.07;;;;;;;6.66;100.00;98170.50;4975157;28;20034;-57
2023/12/28 07:53:22;;;;;;;491.75;196.88;;;;;;;6.85;100.00;98175.13;4977078;28;20552;-58
2023/12/28 07:55:48;;;;;;;451.75;206.60;;;;;;;6.68;100.00;98167.09;4974582;28;20038;-57
2023/12/28 07:58:15;;;;;;;422.38;179.25;;;;;;;6.86;100.00;98174.28;4976941;28;20153;-58
2023/12/28 08:00:40;;;;;;;454.92;198.65;;;;;;;6.79;100.00;98177.59;4975588;28;20042;-57
2023/12/28 08:03:06;;;;;;;479.95;191.50;;;;;;;6.85;100.00;98169.06;4980224;28;20041;-57
2023/12/28 08:05:31;;;;;;;462.02;200.90;;;;;;;6.97;100.00;98170.97;4977316;28;20050;-56
2023/12/28 08:07:56;;;;;;;411.20;194.63;;;;;;;7.01;100.00;98164.97;4978822;28;20462;-58
2023/12/28 08:10:21;;;;;;;510.38;207.02;;;;;;;7.16;100.00;98174.66;4977656;28;20038;-59
2023/12/28 08:12:47;;;;;;;421.48;191.27;;;;;;;7.23;100.00;98160.09;4980801;28;20475;-59
2023/12/28 08:15:12;;;;;;;404.67;180.50;;;;;;;7.21;100.00;98165.28;4975542;28;20481;-57
2023/12/28 08:17:38;;;;;;;453.83;189.18;;;;;;;7.01;100.00;98159.81;4977522;28;21727;-57
2023/12/28 08:20:04;;;;;;;425.20;191.77;;;;;;;7.18;100.00;98159.16;4978595;28;20234;-58
2023/12/28 08:22:31;;;;;;;481.77;200.32;;;;;;;7.27;100.00;98156.69;4978446;28;20034;-55
2023/12/28 08:24:57;;;;;;;409.17;196.15;;;;;;;7.27;100.00;98156.69;4978563;28;20046;-58
2023/12/28 08:27:22;;;;;;;475.15;203.40;;;;;;;7.32;100.00;98165.41;4978147;28;20070;-57
2023/12/28 08:29:48;;;;;;;444.42;202.63;;;;;;;7.51;100.00;98168.22;4978104;28;20037;-57
2023/12/28 08:32:13;;;;;;;467.98;208.65;;;;;;;7.55;100.00;98164.81;4978244;28;20097;-58
2023/12/28 08:34:38;;;;;;;434.63;209.43;;;;;;;7.75;100.00;98161.56;4976303;28;20116;-57
2023/12/28 08:37:04;;;;;;;469.40;209.55;;;;;;;7.77;100.00;98159.88;4978716;28;20038;-59
2023/12/28 08:39:29;;;;;;;509.60;201.95;;;;;;;7.59;100.00;98160.53;4974921;28;20260;-57
2023/12/28 08:41:55;;;;;;;401.90;204.40;;;;;;;7.77;100.00;98167.66;4976022;28;20034;-57
2023/12/28 08:44:21;;;;;;;448.17;200.20;;;;;;;7.73;100.00;98173.63;4979719;28;20050;-58
2023/12/28 08:46:46;;;;;;;477.55;207.73;;;;;;;7.65;100.00;98151.13;4978470;28;20416;-57
2023/12/28 08:49:11;;;;;;;446.70;197.10;;;;;;;7.80;100.00;98159.91;4975161;28;20430;-57
2023/12/28 08:51:37;;;;;;;496.55;209.68;;;;;;;7.94;100.00;98160.91;4973690;28;20049;-57
2023/12/28 08:54:02;;;;;;;428.15;192.05;;;;;;;7.88;100.00;98163.47;4979101;28;20042;-57
2023/12/28 08:56:27;;;;;;;482.98;191.48;;;;;;;7.80;100.00;98168.53;4975057;28;20038;-58
2023/12/28 08:58:54;;;;;;;449.00;201.60;;;;;;;7.81;100.00;98183.25;4976009;28;20117;-57
2023/12/28 09:01:23;;;;;;;582.20;228.95;;;;;;;7.77;100.00;98183.19;4972759;28;20621;-58
2023/12/28 09:03:52;;;;;;;421.83;207.82;;;;;;;7.78;100.00;98182.31;4978577;28;20124;-59
2023/12/28 09:06:19;;;;;;;444.27;214.02;;;;;;;7.84;100.00;98182.41;4981687;28;20061;-57
2023/12/28 09:08:47;;;;;;;447.05;211.05;;;;;;;8.06;100.00;98178.28;4983343;28;20050;-58
2023/12/28 09:11:14;;;;;;;437.63;223.70;;;;;;;8.15;100.00;98174.94;4979502;28;20035;-58
2023/12/28 09:13:40;;;;;;;485.83;216.50;;;;;;;8.09;100.00;98174.84;4976448;28;20576;-58
2023/12/28 09:16:07;;;;;;;428.77;216.48;;;;;;;8.33;100.00;98176.84;4980480;28;20734;-58
2023/12/28 09:18:33;;;;;;;476.30;218.82;;;;;;;8.67;100.00;98177.97;4982161;28;20089;-58
2023/12/28 09:20:58;;;;;;;432.42;219.10;;;;;;;8.71;100.00;98180.63;4978922;28;20042;-57
2023/12/28 09:23:24;;;;;;;557.83;231.13;;;;;;;8.31;100.00;98180.25;4979794;28;20037;-58
2023/12/28 09:25:49;;;;;;;433.30;218.27;;;;;;;8.62;100.00;98183.13;4980384;28;20057;-59
2023/12/28 09:28:14;;;;;;;473.13;226.57;;;;;;;8.68;100.00;98172.81;4979386;28;20044;-56
2023/12/28 09:30:40;;;;;;;525.88;228.07;;;;;;;8.63;100.00;98168.44;4978212;28;20037;-57
2023/12/28 09:33:05;;;;;;;454.65;227.10;;;;;;;8.61;100.00;98171.00;4979337;28;20605;-58
2023/12/28 09:35:31;;;;;;;456.58;210.43;;;;;;;8.68;100.00;98177.09;4975907;28;20599;-57
2023/12/28 09:37:56;;;;;;;439.25;195.07;;;;;;;8.66;100.00;98186.63;4981238;28;20472;-58
2023/12/28 09:40:21;;;;;;;421.95;202.80;;;;;;;8.50;100.00;98183.84;4982409;28;20018;-58
2023/12/28 09:42:59;;;;;;;426.73;211.13;;;;;;;8.53;100.00;98194.28;4984818;28;20072;-58
2023/12/28 09:45:25;;;;;;;482.27;210.43;;;;;;;8.53;100.00;98193.41;4979264;28;20152;-57
2023/12/28 09:47:51;;;;;;;423.67;209.32;;;;;;;8.62;100.00;98190.91;4984460;28;20550;-58
2023/12/28 09:50:18;;;;;;;439.83;184.77;;;;;;;8.47;100.00;98186.44;4981982;28;20026;-58
2023/12/28 09:52:43;;;;;;;389.80;177.43;;;;;;;8.63;100.00;98192.66;4977791;28;20034;-58
2023/12/28 09:55:08;;;;;;;416.83;189.05;;;;;;;8.85;100.00;98180.72;4982883;28;20544;-58
2023/12/28 09:57:35;;;;;;;505.67;205.82;;;;;;;8.85;100.00;98172.94;4982844;28;20074;-59
2023/12/28 10:00:02;;;;;;;423.55;218.48;;;;;;;8.85;100.00;98174.66;4983375;28;20045;-59
2023/12/28 10:02:30;;;;;;;504.25;231.98;;;;;;;7.75;100.00;98179.69;4982102;28;20026;-59
2023/12/28 10:04:55;;;;;;;426.00;235.25;;;;;;;7.38;100.00;98182.72;4986154;28;20029;-58
2023/12/28 10:07:20;;;;;;;380.85;230.45;;;;;;;7.28;100.00;98174.84;4983009;28;20126;-56
2023/12/28 10:09:46;;;;;;;398.60;210.50;;;;;;;7.31;100.00;98179.19;4980616;28;20123;-58
2023/12/28 10:12:11;;;;;;;382.20;195.93;;;;;;;7.24;100.00;98172.22;4981612;28;20049;-57
2023/12/28 10:14:37;;;;;;;413.60;215.45;;;;;;;7.29;100.00;98160.19;4982408;28;20054;-57
2023/12/28 10:17:02;;;;;;;373.15;208.30;;;;;;;7.32;100.00;98160.25;4979495;28;20052;-58
2023/12/28 10:19:27;;;;;;;462.85;202.43;;;;;;;7.36;100.00;98159.44;4983669;28;20041;-57
2023/12/28 10:21:53;;;;;;;393.00;210.43;;;;;;;7.43;100.00;98168.97;4982358;28;20057;-58
2023/12/28 10:24:18;;;;;;;406.63;214.45;;;;;;;7.57;100.00;98165.69;4982703;28;20038;-58
2023/12/28 10:26:43;;;;;;;450.63;242.32;;;;;;;7.62;100.00;98165.75;4980408;28;20057;-58
2023/12/28 10:29:09;;;;;;;403.15;243.65;;;;;;;7.61;100.00;98166.59;4980384;28;20030;-57
2023/12/28 10:31:35;;;;;;;447.65;189.35;;;;;;;8.10;100.00;98155.91;4980766;28;20060;-58
2023/12/28 10:34:02;;;;;;;400.70;186.73;;;;;;;8.88;100.00;98146.16;4981982;28;20038;-59
2023/12/28 10:36:27;;;;;;;466.55;199.93;;;;;;;9.04;100.00;98151.41;4978393;28;20046;-58
2023/12/28 10:38:54;;;;;;;398.88;200.20;;;;;;;9.26;100.00;98147.19;4983920;28;20022;-59
2023/12/28 10:41:20;;;;;;;482.05;205.73;;;;;;;9.20;100.00;98142.84;4984907;28;20108;-58
2023/12/28 10:43:51;;;;;;;367.33;172.85;;;;;;;9.26;100.00;98139.41;4982270;28;20916;-57
2023/12/28 10:46:27;;;;;;;464.27;177.82;;;;;;;9.35;100.00;98130.78;4981263;28;20750;-59
2023/12/28 10:48:59;;;;;;;392.42;169.32;;;;;;;9.61;100.00;98137.78;4979819;28;20141;-59
2023/12/28 10:51:27;;;;;;;457.85;188.18;;;;;;;9.66;100.00;98136.09;4983609;28;20506;-59
2023/12/28 10:54:23;;;;;;;433.00;197.20;;;;;;;9.66;100.00;98136.09;4982352;28;20066;-59
2023/12/28 10:56:56;;;;;;;418.73;188.00;;;;;;;9.69;100.00;98130.88;4979220;28;20042;-58